Time;durP1;ratioP1;P1;durP2;ratioP2;P2;SDS_P1;SDS_P2;PMS_P1;PMS_P2;Temp;Humidity;BMP_temperature;BMP_pressure;BME280_temperature;BME280_humidity;BME280_pressure;Samples;Min_cycle;Max_cycle;Signal;HPM_P1;HPM_P2
2022/09/21 00:00:29;;;;;;;17.13;4.30;;;;;;;;;;5049819;28;20035;-86
2022/09/21 00:02:55;;;;;;;6.90;3.00;;;;;;;;;;5060295;28;20096;-86
2022/09/21 00:05:20;;;;;;;18.48;3.40;;;;;;;;;;5050262;28;20113;-86
2022/09/21 00:07:45;;;;;;;8.68;2.40;;;;;;;;;;5060678;28;20493;-86
2022/09/21 00:10:11;;;;;;;11.25;3.08;;;;;;;;;;5034194;28;20116;-85
2022/09/21 00:12:39;;;;;;;13.25;3.67;;;;;;;;;;5033978;28;20021;-86
2022/09/21 00:15:05;;;;;;;8.25;3.08;;;;;;;;;;5033733;28;20025;-86
2022/09/21 00:17:31;;;;;;;16.67;3.15;;;;;;;;;;5033372;28;20123;-86
2022/09/21 00:19:56;;;;;;;12.15;4.10;;;;;;;;;;5032232;28;20108;-86
2022/09/21 00:22:21;;;;;;;12.00;2.97;;;;;;;;;;5051401;28;20104;-86
2022/09/21 00:24:46;;;;;;;11.10;2.58;;;;;;;;;;5013505;28;20053;-85
2022/09/21 00:27:11;;;;;;;9.85;2.40;;;;;;;;;;5030581;28;20116;-85
2022/09/21 00:29:37;;;;;;;12.87;2.90;;;;;;;;;;5036093;28;20041;-85
2022/09/21 00:32:02;;;;;;;9.60;2.67;;;;;;;;;;5052154;28;20273;-86
2022/09/21 00:34:27;;;;;;;8.43;2.83;;;;;;;;;;5042212;28;20059;-85
2022/09/21 00:36:52;;;;;;;8.52;2.35;;;;;;;;;;5045818;28;20032;-85
2022/09/21 00:39:17;;;;;;;7.55;3.40;;;;;;;;;;5050718;28;20013;-86
2022/09/21 00:41:43;;;;;;;12.10;3.97;;;;;;;;;;5048929;28;20070;-85
2022/09/21 00:44:17;;;;;;;14.43;3.20;;;;;;;;;;5042795;28;20024;-85
2022/09/21 00:46:44;;;;;;;11.98;3.40;;;;;;;;;;5030922;28;20028;-85
2022/09/21 00:49:09;;;;;;;22.55;3.53;;;;;;;;;;5045574;28;20263;-86
2022/09/21 00:51:35;;;;;;;10.13;3.28;;;;;;;;;;5045548;28;20035;-85
2022/09/21 00:54:02;;;;;;;13.88;3.42;;;;;;;;;;5052162;28;20049;-86
2022/09/21 00:56:28;;;;;;;9.05;3.00;;;;;;;;;;5046672;28;20020;-85
2022/09/21 00:58:53;;;;;;;8.55;3.03;;;;;;;;;;5040552;28;20028;-86
2022/09/21 01:01:19;;;;;;;7.93;3.00;;;;;;;;;;5049339;28;20358;-84
2022/09/21 01:03:45;;;;;;;5.70;2.67;;;;;;;;;;5031018;28;20393;-85
2022/09/21 01:06:15;;;;;;;6.53;3.25;;;;;;;;;;5047598;28;20660;-86
2022/09/21 01:08:40;;;;;;;10.55;3.38;;;;;;;;;;5049057;28;20038;-85
2022/09/21 01:11:21;;;;;;;5.63;2.67;;;;;;;;;;5068459;28;20092;-86
2022/09/21 01:13:56;;;;;;;9.75;2.75;;;;;;;;;;5029809;28;20021;-85
2022/09/21 01:16:29;;;;;;;14.63;3.15;;;;;;;;;;5042513;28;20020;-86
2022/09/21 01:19:14;;;;;;;13.23;3.20;;;;;;;;;;5040657;28;20107;-85
2022/09/21 01:21:50;;;;;;;12.13;2.92;;;;;;;;;;4991107;28;20299;-85
2022/09/21 01:24:27;;;;;;;6.47;2.90;;;;;;;;;;5036580;28;20481;-86
2022/09/21 01:26:59;;;;;;;23.67;3.30;;;;;;;;;;5035200;28;20025;-85
2022/09/21 01:29:30;;;;;;;12.80;2.90;;;;;;;;;;5056974;28;20654;-85
2022/09/21 01:32:22;;;;;;;12.95;4.03;;;;;;;;;;5030207;28;20029;-84
2022/09/21 01:34:51;;;;;;;10.10;3.42;;;;;;;;;;5052921;28;20036;-85
2022/09/21 01:37:22;;;;;;;9.70;2.97;;;;;;;;;;5044324;28;20090;-86
2022/09/21 01:39:49;;;;;;;15.55;3.35;;;;;;;;;;5052456;28;20458;-86
2022/09/21 01:42:16;;;;;;;17.38;4.13;;;;;;;;;;5031254;28;20025;-85
2022/09/21 01:44:42;;;;;;;13.85;4.45;;;;;;;;;;5027002;28;20473;-85
2022/09/21 01:47:11;;;;;;;13.88;3.05;;;;;;;;;;5037311;28;20389;-85
2022/09/21 01:49:38;;;;;;;12.27;3.38;;;;;;;;;;5043347;28;20527;-85
2022/09/21 01:52:12;;;;;;;19.75;2.97;;;;;;;;;;5032136;28;20366;-86
2022/09/21 01:54:40;;;;;;;12.45;2.97;;;;;;;;;;5042943;28;20021;-85
2022/09/21 01:57:26;;;;;;;6.38;2.88;;;;;;;;;;5041488;28;20524;-86
2022/09/21 01:59:51;;;;;;;9.55;2.70;;;;;;;;;;5044501;28;20076;-85
2022/09/21 02:02:33;;;;;;;10.38;3.25;;;;;;;;;;5049127;28;20441;-85
2022/09/21 02:05:02;;;;;;;13.32;2.90;;;;;;;;;;5027837;28;20481;-86
2022/09/21 02:07:27;;;;;;;6.97;3.08;;;;;;;;;;5030291;28;20020;-85
2022/09/21 02:09:55;;;;;;;12.30;2.95;;;;;;;;;;5049760;28;20024;-86
2022/09/21 02:12:20;;;;;;;10.82;3.42;;;;;;;;;;5031298;28;20020;-85
2022/09/21 02:14:46;;;;;;;8.00;3.30;;;;;;;;;;5047452;28;20024;-85
2022/09/21 02:17:14;;;;;;;11.38;3.47;;;;;;;;;;5032130;28;20024;-85
2022/09/21 02:19:45;;;;;;;10.23;3.67;;;;;;;;;;5044110;28;20043;-85
2022/09/21 02:22:12;;;;;;;10.63;2.80;;;;;;;;;;5048940;28;20024;-85
2022/09/21 02:24:41;;;;;;;9.30;2.80;;;;;;;;;;5045667;28;20021;-85
2022/09/21 02:27:21;;;;;;;10.02;3.10;;;;;;;;;;5033654;28;20613;-85
2022/09/21 02:29:46;;;;;;;;;;;;;;;;;;5050641;28;20071;-85
2022/09/21 02:32:20;;;;;;;11.88;2.97;;;;;;;;;;5024684;28;20377;-85
2022/09/21 02:34:51;;;;;;;10.07;2.50;;;;;;;;;;5048543;28;20028;-85
2022/09/21 02:37:31;;;;;;;20.30;3.20;;;;;;;;;;5044427;28;20130;-85
2022/09/21 02:40:02;;;;;;;18.30;5.63;;;;;;;;;;5058276;28;20032;-85
2022/09/21 02:42:29;;;;;;;6.65;2.88;;;;;;;;;;5030772;28;20787;-85
2022/09/21 02:44:59;;;;;;;7.35;2.65;;;;;;;;;;5042246;28;20017;-85
2022/09/21 02:47:33;;;;;;;16.90;3.15;;;;;;;;;;5030638;28;20083;-84
2022/09/21 02:50:01;;;;;;;11.50;2.80;;;;;;;;;;5056980;28;20393;-85
2022/09/21 02:52:28;;;;;;;8.95;2.67;;;;;;;;;;5030062;28;20021;-86
2022/09/21 02:54:54;;;;;;;17.10;3.25;;;;;;;;;;5045863;28;20078;-86
2022/09/21 02:57:21;;;;;;;9.57;3.00;;;;;;;;;;5029149;28;20469;-85
2022/09/21 02:59:46;;;;;;;6.05;2.60;;;;;;;;;;5026485;28;20074;-85
2022/09/21 03:02:12;;;;;;;8.60;2.63;;;;;;;;;;5031683;28;20017;-85
2022/09/21 03:04:40;;;;;;;14.27;2.83;;;;;;;;;;5050055;28;20171;-85
2022/09/21 03:07:05;;;;;;;7.60;3.05;;;;;;;;;;5057618;28;20021;-85
2022/09/21 03:09:30;;;;;;;13.23;3.33;;;;;;;;;;5048732;28;20040;-85
2022/09/21 03:11:55;;;;;;;9.63;3.03;;;;;;;;;;5048914;28;20033;-83
2022/09/21 03:14:21;;;;;;;14.75;3.38;;;;;;;;;;5038725;28;20025;-84
2022/09/21 03:16:47;;;;;;;10.02;2.92;;;;;;;;;;5034295;28;20099;-84
2022/09/21 03:19:12;;;;;;;4.85;2.75;;;;;;;;;;5045974;28;20032;-84
2022/09/21 03:21:37;;;;;;;8.18;3.30;;;;;;;;;;5072575;28;20107;-84
2022/09/21 03:24:02;;;;;;;8.07;2.85;;;;;;;;;;5037867;28;20021;-85
2022/09/21 03:26:28;;;;;;;5.07;2.58;;;;;;;;;;5031372;28;20056;-85
2022/09/21 03:28:53;;;;;;;12.15;2.90;;;;;;;;;;5031919;28;20507;-86
2022/09/21 03:31:19;;;;;;;9.75;3.00;;;;;;;;;;5039526;28;20025;-85
2022/09/21 03:33:44;;;;;;;14.68;5.05;;;;;;;;;;5034406;28;20035;-84
2022/09/21 03:36:10;;;;;;;11.73;3.25;;;;;;;;;;5044774;28;20025;-85
2022/09/21 03:38:36;;;;;;;13.23;3.40;;;;;;;;;;5059350;28;20024;-85
2022/09/21 03:41:01;;;;;;;6.47;3.05;;;;;;;;;;5034296;28;20025;-85
2022/09/21 03:43:26;;;;;;;5.70;3.03;;;;;;;;;;5050483;28;20032;-84
2022/09/21 03:45:52;;;;;;;12.45;5.13;;;;;;;;;;5037394;28;20140;-85
2022/09/21 03:48:17;;;;;;;13.77;3.13;;;;;;;;;;5046134;28;20389;-85
2022/09/21 03:50:43;;;;;;;5.95;3.20;;;;;;;;;;5060920;28;20020;-85
2022/09/21 03:53:09;;;;;;;11.85;4.10;;;;;;;;;;5034282;28;20016;-85
2022/09/21 03:55:34;;;;;;;13.45;3.30;;;;;;;;;;5043909;28;20017;-85
2022/09/21 03:57:59;;;;;;;6.43;3.80;;;;;;;;;;5031691;28;20028;-85
2022/09/21 04:00:24;;;;;;;6.25;2.95;;;;;;;;;;5028344;28;20493;-85
2022/09/21 04:02:49;;;;;;;15.20;3.20;;;;;;;;;;5044761;28;20021;-85
2022/09/21 04:05:15;;;;;;;6.00;3.70;;;;;;;;;;5034230;28;20159;-85
2022/09/21 04:07:41;;;;;;;10.20;3.38;;;;;;;;;;5051653;28;20017;-85
2022/09/21 04:10:09;;;;;;;10.07;3.63;;;;;;;;;;5033074;28;20087;-85
2022/09/21 04:12:35;;;;;;;10.48;3.15;;;;;;;;;;5057551;28;20445;-85
2022/09/21 04:15:00;;;;;;;12.55;4.13;;;;;;;;;;5046345;28;20108;-85
2022/09/21 04:17:26;;;;;;;14.55;4.07;;;;;;;;;;5028231;28;20021;-85
2022/09/21 04:19:51;;;;;;;8.60;3.70;;;;;;;;;;5056531;22;20025;-63
2022/09/21 04:22:17;;;;;;;10.60;3.50;;;;;;;;;;5044435;28;20080;-64
2022/09/21 04:24:43;;;;;;;9.30;4.05;;;;;;;;;;5033914;28;20473;-63
2022/09/21 04:27:08;;;;;;;8.98;3.78;;;;;;;;;;5034044;28;20103;-63
2022/09/21 04:29:33;;;;;;;8.00;3.97;;;;;;;;;;5035762;28;20032;-63
2022/09/21 04:31:58;;;;;;;10.85;3.80;;;;;;;;;;5033297;28;20458;-63
2022/09/21 04:34:24;;;;;;;9.70;3.00;;;;;;;;;;5059586;22;20041;-66
2022/09/21 04:36:49;;;;;;;6.60;3.17;;;;;;;;;;5061107;28;20450;-69
2022/09/21 04:39:14;;;;;;;17.37;4.17;;;;;;;;;;5063148;28;20029;-67
2022/09/21 04:41:40;;;;;;;9.27;3.90;;;;;;;;;;5052062;28;20271;-69
2022/09/21 04:44:06;;;;;;;17.13;4.85;;;;;;;;;;5051756;28;20284;-66
2022/09/21 04:46:31;;;;;;;9.00;3.97;;;;;;;;;;5050468;28;20369;-68
2022/09/21 04:48:56;;;;;;;6.22;3.70;;;;;;;;;;5051791;28;20267;-67
2022/09/21 04:51:21;;;;;;;8.03;4.10;;;;;;;;;;5057584;28;20096;-66
2022/09/21 04:53:46;;;;;;;12.93;5.03;;;;;;;;;;5052032;28;20754;-69
2022/09/21 04:56:13;;;;;;;10.65;4.85;;;;;;;;;;5052504;28;20353;-66
2022/09/21 04:58:38;;;;;;;9.68;4.38;;;;;;;;;;5053670;28;20019;-67
2022/09/21 05:01:05;;;;;;;12.73;4.57;;;;;;;;;;5050521;28;20404;-66
2022/09/21 05:03:30;;;;;;;13.20;4.57;;;;;;;;;;5056885;28;20464;-66
2022/09/21 05:05:55;;;;;;;9.98;4.22;;;;;;;;;;5055719;28;20060;-67
2022/09/21 05:10:01;;;;;;;11.30;4.38;;;;;;;;;;5069895;28;20021;-66
2022/09/21 05:11:08;;;;;;;20.42;4.63;;;;;;;;;;5053308;28;20537;-66
2022/09/21 05:13:34;;;;;;;10.25;4.80;;;;;;;;;;5053487;28;20044;-69
2022/09/21 05:15:59;;;;;;;18.63;5.18;;;;;;;;;;5053605;28;20057;-66
2022/09/21 05:18:24;;;;;;;16.42;4.30;;;;;;;;;;5051520;28;20129;-67
2022/09/21 05:20:56;;;;;;;11.85;4.40;;;;;;;;;;5050176;28;20028;-66
2022/09/21 05:23:22;;;;;;;11.90;4.40;;;;;;;;;;5051427;28;20078;-66
2022/09/21 05:25:47;;;;;;;16.65;5.22;;;;;;;;;;5058474;28;20060;-67
2022/09/21 05:28:12;;;;;;;8.97;4.57;;;;;;;;;;5052485;28;20112;-68
2022/09/21 05:30:37;;;;;;;8.05;3.55;;;;;;;;;;5050420;28;20271;-66
2022/09/21 05:33:03;;;;;;;12.27;3.83;;;;;;;;;;5049124;28;20024;-66
2022/09/21 05:35:36;;;;;;;8.30;3.65;;;;;;;;;;5054289;28;20028;-69
2022/09/21 05:38:04;;;;;;;8.48;3.78;;;;;;;;;;5053849;28;20032;-66
2022/09/21 05:40:29;;;;;;;10.93;3.50;;;;;;;;;;5050875;28;20049;-67
2022/09/21 05:42:55;;;;;;;6.35;3.30;;;;;;;;;;5049908;28;20389;-66
2022/09/21 05:45:21;;;;;;;11.85;4.00;;;;;;;;;;5047923;28;20029;-68
2022/09/21 05:48:02;;;;;;;9.10;3.97;;;;;;;;;;5051370;28;20071;-70
2022/09/21 05:50:34;;;;;;;11.38;4.00;;;;;;;;;;5050397;28;20013;-65
2022/09/21 05:53:04;;;;;;;9.65;4.32;;;;;;;;;;5054926;28;20031;-69
2022/09/21 05:55:32;;;;;;;8.68;4.10;;;;;;;;;;5057247;28;20069;-69
2022/09/21 05:58:01;;;;;;;9.02;3.80;;;;;;;;;;5068968;28;20029;-71
2022/09/21 06:00:35;;;;;;;10.07;4.35;;;;;;;;;;5047417;28;20071;-66
2022/09/21 06:03:15;;;;;;;12.18;4.50;;;;;;;;;;5057210;28;20028;-66
2022/09/21 06:05:42;;;;;;;9.73;4.88;;;;;;;;;;5070145;28;20095;-66
2022/09/21 06:08:07;;;;;;;15.05;4.80;;;;;;;;;;5052324;28;20032;-66
2022/09/21 06:10:33;;;;;;;12.45;4.97;;;;;;;;;;5050726;28;20009;-68
2022/09/21 06:12:59;;;;;;;16.50;5.85;;;;;;;;;;5050409;28;20025;-69
2022/09/21 06:15:24;;;;;;;7.45;4.90;;;;;;;;;;5056250;28;20020;-68
2022/09/21 06:17:49;;;;;;;16.17;5.50;;;;;;;;;;5053321;28;20025;-66
2022/09/21 06:20:14;;;;;;;11.70;5.30;;;;;;;;;;5049671;28;20032;-66
2022/09/21 06:22:39;;;;;;;15.48;5.20;;;;;;;;;;5050371;28;20355;-66
2022/09/21 06:25:05;;;;;;;15.97;6.33;;;;;;;;;;5048753;28;20600;-66
2022/09/21 06:27:30;;;;;;;12.05;5.40;;;;;;;;;;5046677;28;20268;-67
2022/09/21 06:29:56;;;;;;;10.27;4.80;;;;;;;;;;5049060;28;20437;-67
2022/09/21 06:32:21;;;;;;;10.50;4.57;;;;;;;;;;5050215;28;20366;-65
2022/09/21 06:34:46;;;;;;;10.70;5.35;;;;;;;;;;5050028;28;20481;-70
2022/09/21 06:37:11;;;;;;;15.85;5.65;;;;;;;;;;5050700;28;20025;-65
2022/09/21 06:39:36;;;;;;;9.10;5.30;;;;;;;;;;5051354;28;20016;-67
2022/09/21 06:42:02;;;;;;;11.07;5.20;;;;;;;;;;5054314;28;20570;-66
2022/09/21 06:44:28;;;;;;;10.45;4.78;;;;;;;;;;5049531;28;20654;-67
2022/09/21 06:46:53;;;;;;;12.77;4.35;;;;;;;;;;5049963;28;20024;-66
2022/09/21 06:49:19;;;;;;;21.45;4.80;;;;;;;;;;5049877;28;20024;-65
2022/09/21 06:51:45;;;;;;;7.60;3.83;;;;;;;;;;5051042;28;20401;-66
2022/09/21 06:54:11;;;;;;;5.40;3.58;;;;;;;;;;5047988;28;20275;-65
2022/09/21 06:56:36;;;;;;;6.13;3.57;;;;;;;;;;5048209;28;20380;-66
2022/09/21 06:59:01;;;;;;;15.95;4.10;;;;;;;;;;5049542;28;20290;-69
2022/09/21 07:01:26;;;;;;;8.90;3.65;;;;;;;;;;5048568;28;20103;-67
2022/09/21 07:03:52;;;;;;;7.40;3.47;;;;;;;;;;5050427;28;20020;-66
2022/09/21 07:06:19;;;;;;;7.57;3.58;;;;;;;;;;5049629;28;20024;-68
2022/09/21 07:08:44;;;;;;;14.00;3.60;;;;;;;;;;5050021;28;20021;-66
2022/09/21 07:11:10;;;;;;;14.02;3.63;;;;;;;;;;5049346;28;20033;-66
2022/09/21 07:13:35;;;;;;;7.68;3.38;;;;;;;;;;5048730;28;20442;-67
2022/09/21 07:16:08;;;;;;;8.07;3.75;;;;;;;;;;5051442;28;20029;-66
2022/09/21 07:18:33;;;;;;;4.97;3.25;;;;;;;;;;5049802;28;20017;-66
2022/09/21 07:21:02;;;;;;;8.25;4.15;;;;;;;;;;5049725;28;20017;-66
2022/09/21 07:23:27;;;;;;;6.22;3.13;;;;;;;;;;5049608;28;20112;-66
2022/09/21 07:25:52;;;;;;;9.27;3.53;;;;;;;;;;5046938;28;20105;-68
2022/09/21 07:28:18;;;;;;;6.47;3.23;;;;;;;;;;5054207;28;20662;-66
2022/09/21 07:30:43;;;;;;;10.63;3.65;;;;;;;;;;5055735;28;20267;-66
2022/09/21 07:33:08;;;;;;;7.35;3.72;;;;;;;;;;5050962;28;20021;-70
2022/09/21 07:35:34;;;;;;;7.70;2.80;;;;;;;;;;5033046;28;20366;-66
2022/09/21 07:38:00;;;;;;;5.35;3.17;;;;;;;;;;5050608;28;20154;-69
2022/09/21 07:40:25;;;;;;;7.35;3.70;;;;;;;;;;5049971;28;20500;-68
2022/09/21 07:42:51;;;;;;;13.55;3.65;;;;;;;;;;5047520;28;20123;-67
2022/09/21 07:45:16;;;;;;;7.70;3.42;;;;;;;;;;5048748;28;20009;-67
2022/09/21 07:47:41;;;;;;;8.77;3.90;;;;;;;;;;5047891;28;20028;-67
2022/09/21 07:50:06;;;;;;;6.90;3.67;;;;;;;;;;5048174;28;20021;-69
2022/09/21 07:52:32;;;;;;;9.80;3.95;;;;;;;;;;5049138;28;20052;-66
2022/09/21 07:54:57;;;;;;;9.50;4.00;;;;;;;;;;5050823;28;20028;-67
2022/09/21 08:00:07;;;;;;;7.30;3.10;;;;;;;;;;5051813;28;20031;-67
2022/09/21 08:02:33;;;;;;;6.30;2.65;;;;;;;;;;5049305;28;20159;-70
2022/09/21 08:04:58;;;;;;;8.63;3.58;;;;;;;;;;5054506;28;20104;-67
2022/09/21 08:07:23;;;;;;;5.43;3.20;;;;;;;;;;5051674;28;20447;-70
2022/09/21 08:09:50;;;;;;;7.70;3.25;;;;;;;;;;5053280;28;20394;-67
2022/09/21 08:12:17;;;;;;;6.15;3.30;;;;;;;;;;5051277;28;20021;-67
2022/09/21 08:14:42;;;;;;;6.57;2.70;;;;;;;;;;5052677;28;20027;-68
2022/09/21 08:17:07;;;;;;;9.57;4.05;;;;;;;;;;5053991;28;20446;-67
2022/09/21 08:19:33;;;;;;;7.27;3.10;;;;;;;;;;5052459;28;20013;-65
2022/09/21 08:21:58;;;;;;;12.80;3.72;;;;;;;;;;5053431;28;20021;-70
2022/09/21 08:24:27;;;;;;;9.53;3.10;;;;;;;;;;5052036;28;20025;-68
2022/09/21 08:26:52;;;;;;;6.60;2.72;;;;;;;;;;5050172;28;20515;-67
2022/09/21 08:29:18;;;;;;;10.65;3.22;;;;;;;;;;5052194;28;20021;-67
2022/09/21 08:31:45;;;;;;;6.03;2.75;;;;;;;;;;5051765;28;20062;-68
2022/09/21 08:34:10;;;;;;;12.05;3.17;;;;;;;;;;5055787;28;20481;-67
2022/09/21 08:36:35;;;;;;;11.07;3.33;;;;;;;;;;5049835;28;20032;-71
2022/09/21 08:39:00;;;;;;;7.17;2.70;;;;;;;;;;5051180;28;20030;-69
2022/09/21 08:41:41;;;;;;;8.00;2.43;;;;;;;;;;5057082;28;20476;-69
2022/09/21 08:44:25;;;;;;;5.97;2.28;;;;;;;;;;5055904;28;20485;-68
2022/09/21 08:46:59;;;;;;;11.00;3.00;;;;;;;;;;5052006;28;20028;-67
2022/09/21 08:49:26;;;;;;;4.07;2.58;;;;;;;;;;5050223;28;20040;-67
2022/09/21 08:51:59;;;;;;;10.32;2.78;;;;;;;;;;5051220;28;20025;-70
2022/09/21 08:54:31;;;;;;;6.47;3.10;;;;;;;;;;5046234;28;20297;-67
2022/09/21 08:56:56;;;;;;;10.50;2.28;;;;;;;;;;5044794;28;20035;-68
2022/09/21 08:59:21;;;;;;;8.05;2.80;;;;;;;;;;5046885;28;20457;-68
2022/09/21 09:01:46;;;;;;;2.80;2.20;;;;;;;;;;5049790;28;20099;-69
2022/09/21 09:04:30;;;;;;;5.28;2.10;;;;;;;;;;5054587;28;20034;-68
2022/09/21 09:06:56;;;;;;;6.38;2.08;;;;;;;;;;5062451;28;20021;-68
2022/09/21 09:09:40;;;;;;;6.88;2.60;;;;;;;;;;5051242;28;20477;-68
2022/09/21 09:12:25;;;;;;;5.85;3.20;;;;;;;;;;5067134;28;20100;-68
2022/09/21 09:14:56;;;;;;;9.00;2.33;;;;;;;;;;5052591;28;20029;-68
2022/09/21 09:17:24;;;;;;;3.90;1.90;;;;;;;;;;5046576;28;20408;-68
2022/09/21 09:19:56;;;;;;;4.80;1.52;;;;;;;;;;5051156;28;20021;-68
2022/09/21 09:22:24;;;;;;;6.53;1.83;;;;;;;;;;5051433;28;20547;-68
2022/09/21 09:24:50;;;;;;;5.10;1.30;;;;;;;;;;5050942;28;20100;-68
2022/09/21 09:27:21;;;;;;;4.22;1.55;;;;;;;;;;5049404;28;20013;-68
2022/09/21 09:30:09;;;;;;;3.47;1.02;;;;;;;;;;5046416;28;20024;-68
2022/09/21 09:32:40;;;;;;;6.10;1.10;;;;;;;;;;5046675;28;20476;-68
2022/09/21 09:35:17;;;;;;;4.35;1.05;;;;;;;;;;5050703;28;20444;-68
2022/09/21 09:37:43;;;;;;;5.75;1.27;;;;;;;;;;5049912;28;20083;-68
2022/09/21 09:40:11;;;;;;;5.97;1.67;;;;;;;;;;5046053;28;20511;-68
2022/09/21 09:42:42;;;;;;;7.40;1.33;;;;;;;;;;5046934;28;20024;-68
2022/09/21 09:45:10;;;;;;;5.15;1.20;;;;;;;;;;5051380;28;20023;-68
2022/09/21 09:47:41;;;;;;;6.97;1.33;;;;;;;;;;5051091;28;20057;-68
2022/09/21 09:50:12;;;;;;;5.28;1.50;;;;;;;;;;5051078;28;20032;-68
2022/09/21 09:52:37;;;;;;;7.65;1.60;;;;;;;;;;5049287;28;20017;-69
2022/09/21 09:55:18;;;;;;;4.47;1.10;;;;;;;;;;5049315;28;20381;-68
2022/09/21 09:57:44;;;;;;;5.18;1.35;;;;;;;;;;5052580;28;20021;-68
2022/09/21 10:00:14;;;;;;;4.20;1.40;;;;;;;;;;5050889;28;20520;-68
2022/09/21 10:02:48;;;;;;;7.07;1.20;;;;;;;;;;5051933;28;20027;-68
2022/09/21 10:05:23;;;;;;;8.50;1.20;;;;;;;;;;5069193;28;20012;-68
2022/09/21 10:07:49;;;;;;;2.88;1.27;;;;;;;;;;5058153;28;20469;-68
2022/09/21 10:10:21;;;;;;;7.93;1.30;;;;;;;;;;5057615;28;20021;-68
2022/09/21 10:12:46;;;;;;;3.05;1.00;;;;;;;;;;5049814;28;20020;-67
2022/09/21 10:15:12;;;;;;;5.25;1.00;;;;;;;;;;5048954;28;20108;-67
2022/09/21 10:17:37;;;;;;;5.35;1.33;;;;;;;;;;5051061;28;20017;-68
2022/09/21 10:20:04;;;;;;;4.50;1.00;;;;;;;;;;5053208;28;20470;-68
2022/09/21 10:22:30;;;;;;;6.90;1.17;;;;;;;;;;5055247;28;20461;-67
2022/09/21 10:24:58;;;;;;;4.30;1.10;;;;;;;;;;5057202;28;20035;-67
2022/09/21 10:27:27;;;;;;;8.52;1.75;;;;;;;;;;5051529;28;20028;-67
2022/09/21 10:29:52;;;;;;;3.42;1.15;;;;;;;;;;5049391;28;20472;-67
2022/09/21 10:32:22;;;;;;;5.85;1.08;;;;;;;;;;5058604;28;20074;-67
2022/09/21 10:35:11;;;;;;;5.43;1.65;;;;;;;;;;5058995;22;20044;-90
2022/09/21 10:37:40;;;;;;;7.20;1.30;;;;;;;;;;5044489;28;20794;-91
2022/09/21 10:40:34;;;;;;;3.97;0.98;;;;;;;;;;5030143;28;20078;-91
2022/09/21 10:43:00;;;;;;;4.53;1.23;;;;;;;;;;5020403;28;20036;-91
2022/09/21 10:45:27;;;;;;;8.82;1.05;;;;;;;;;;5055311;28;20017;-90
2022/09/21 10:47:52;;;;;;;6.97;1.02;;;;;;;;;;5034239;28;20021;-90
2022/09/21 10:50:25;;;;;;;8.00;1.37;;;;;;;;;;5047729;28;20523;-89
2022/09/21 10:52:57;;;;;;;4.22;0.60;;;;;;;;;;5039656;28;20431;-92
2022/09/21 10:55:22;;;;;;;12.63;1.33;;;;;;;;;;5028251;28;20426;-90
2022/09/21 10:57:49;;;;;;;11.05;2.00;;;;;;;;;;5035020;28;20107;-90
2022/09/21 11:00:20;;;;;;;7.97;0.98;;;;;;;;;;5037516;28;20017;-92
2022/09/21 11:02:49;;;;;;;3.88;1.30;;;;;;;;;;5034334;28;20121;-91
2022/09/21 11:05:21;;;;;;;6.47;1.50;;;;;;;;;;5037577;28;20050;-90
2022/09/21 11:07:57;;;;;;;3.88;0.90;;;;;;;;;;5031689;28;20025;-90
2022/09/21 11:10:28;;;;;;;4.13;1.75;;;;;;;;;;5031001;28;20544;-90
2022/09/21 11:13:00;;;;;;;2.90;0.93;;;;;;;;;;5051957;28;20025;-92
2022/09/21 11:15:42;;;;;;;5.55;1.10;;;;;;;;;;5052743;28;20017;-93
2022/09/21 11:18:25;;;;;;;2.55;0.93;;;;;;;;;;5028099;28;20104;-90
2022/09/21 11:21:07;;;;;;;5.28;0.90;;;;;;;;;;5049003;28;20444;-92
2022/09/21 11:23:46;;;;;;;13.43;1.50;;;;;;;;;;5042808;28;20489;-90
2022/09/21 11:26:16;;;;;;;4.90;0.77;;;;;;;;;;5038042;28;20029;-90
2022/09/21 11:28:41;;;;;;;;;;;;;;;;;;5038677;28;20017;-90
2022/09/21 11:31:09;;;;;;;5.40;0.93;;;;;;;;;;5050985;28;19923;-93
2022/09/21 11:33:54;;;;;;;4.57;1.38;;;;;;;;;;5038598;28;20052;-95
2022/09/21 11:36:34;;;;;;;2.42;0.70;;;;;;;;;;5031139;28;20029;-90
2022/09/21 11:39:07;;;;;;;3.90;1.05;;;;;;;;;;5034313;28;20686;-92
2022/09/21 11:41:48;;;;;;;4.30;0.88;;;;;;;;;;5039191;28;20028;-90
2022/09/21 11:44:49;;;;;;;7.85;1.17;;;;;;;;;;5035006;28;20090;-91
2022/09/21 11:47:23;;;;;;;8.43;1.30;;;;;;;;;;4962518;28;20105;-90
2022/09/21 11:50:07;;;;;;;4.22;1.05;;;;;;;;;;5021909;28;20378;-89
2022/09/21 11:52:56;;;;;;;8.25;0.85;;;;;;;;;;5034595;28;20085;-92
2022/09/21 11:55:43;;;;;;;3.13;1.05;;;;;;;;;;5030237;28;20017;-89
2022/09/21 11:58:09;;;;;;;5.65;0.90;;;;;;;;;;5032584;28;20020;-89
2022/09/21 12:00:41;;;;;;;1.88;0.80;;;;;;;;;;5039922;28;20013;-93
2022/09/21 12:03:07;;;;;;;5.50;0.65;;;;;;;;;;5049358;28;20548;-90
2022/09/21 12:05:49;;;;;;;8.35;1.10;;;;;;;;;;5052689;28;20017;-91
2022/09/21 12:08:22;;;;;;;3.75;0.50;;;;;;;;;;5044808;28;20085;-91
2022/09/21 12:11:06;;;;;;;6.97;0.93;;;;;;;;;;5039207;28;20029;-91
2022/09/21 12:13:49;;;;;;;2.22;0.70;;;;;;;;;;5028156;28;20150;-91
2022/09/21 12:16:26;;;;;;;5.90;0.95;;;;;;;;;;5048554;28;20017;-91
2022/09/21 12:18:58;;;;;;;4.85;0.75;;;;;;;;;;5037701;28;20034;-91
2022/09/21 12:21:43;;;;;;;6.07;0.88;;;;;;;;;;5056366;28;20021;-90
2022/09/21 12:24:26;;;;;;;5.55;0.70;;;;;;;;;;5035627;28;20025;-88
2022/09/21 12:26:54;;;;;;;8.55;1.23;;;;;;;;;;5050415;28;20029;-90
2022/09/21 12:29:29;;;;;;;4.55;0.90;;;;;;;;;;5025139;28;20396;-90
2022/09/21 12:31:57;;;;;;;5.88;0.68;;;;;;;;;;5057723;28;20700;-92
2022/09/21 12:34:25;;;;;;;7.32;0.85;;;;;;;;;;5038717;28;20089;-90
2022/09/21 12:37:00;;;;;;;3.45;0.80;;;;;;;;;;5048124;28;20499;-90
2022/09/21 12:39:27;;;;;;;5.95;0.80;;;;;;;;;;5039057;28;20028;-93
2022/09/21 12:42:00;;;;;;;4.55;0.68;;;;;;;;;;5043992;28;20032;-89
2022/09/21 12:44:50;;;;;;;3.28;0.80;;;;;;;;;;5040709;28;20025;-92
2022/09/21 12:47:18;;;;;;;4.22;0.90;;;;;;;;;;5071060;28;20034;-93
2022/09/21 12:49:45;;;;;;;3.53;0.60;;;;;;;;;;5014665;28;20113;-91
2022/09/21 12:52:13;;;;;;;6.00;0.80;;;;;;;;;;5017619;28;20012;-90
2022/09/21 12:54:44;;;;;;;2.75;0.60;;;;;;;;;;5054226;28;20499;-89
2022/09/21 12:57:09;;;;;;;;;;;;;;;;;;5049473;28;20013;-90
2022/09/21 12:59:49;;;;;;;5.22;0.50;;;;;;;;;;5041586;28;19908;-90
2022/09/21 13:02:31;;;;;;;2.05;1.25;;;;;;;;;;5042343;28;20024;-91
2022/09/21 13:04:57;;;;;;;4.07;1.10;;;;;;;;;;5040400;28;20036;-96
2022/09/21 13:07:38;;;;;;;9.40;1.00;;;;;;;;;;5039737;28;20036;-89
2022/09/21 13:10:13;;;;;;;2.55;0.70;;;;;;;;;;5033703;28;20298;-90
2022/09/21 13:12:42;;;;;;;5.45;1.05;;;;;;;;;;5037630;28;20056;-91
2022/09/21 13:15:13;;;;;;;8.10;0.88;;;;;;;;;;5051542;28;20104;-93
2022/09/21 13:17:38;;;;;;;5.90;0.80;;;;;;;;;;5042011;28;20017;-89
2022/09/21 13:20:05;;;;;;;7.80;1.88;;;;;;;;;;5050459;28;20438;-89
2022/09/21 13:22:32;;;;;;;2.28;0.70;;;;;;;;;;5040846;28;20020;-90
2022/09/21 13:25:00;;;;;;;6.13;0.93;;;;;;;;;;5031071;28;20508;-90
2022/09/21 13:27:45;;;;;;;8.52;1.10;;;;;;;;;;5035415;28;20354;-90
2022/09/21 13:30:18;;;;;;;4.28;0.80;;;;;;;;;;5057039;28;20052;-91
2022/09/21 13:32:50;;;;;;;3.85;0.63;;;;;;;;;;5047196;28;20410;-90
2022/09/21 13:35:35;;;;;;;5.30;1.25;;;;;;;;;;5030834;28;20037;-90
2022/09/21 13:38:22;;;;;;;5.05;1.45;;;;;;;;;;5049201;28;20028;-89
2022/09/21 13:41:16;;;;;;;7.40;1.17;;;;;;;;;;5056636;28;20034;-93
2022/09/21 13:43:59;;;;;;;5.28;1.52;;;;;;;;;;5035903;28;20029;-91
2022/09/21 13:46:33;;;;;;;5.38;1.10;;;;;;;;;;5033090;28;20020;-92
2022/09/21 13:49:01;;;;;;;6.18;1.10;;;;;;;;;;5038113;28;20027;-89
2022/09/21 13:51:26;;;;;;;5.15;1.00;;;;;;;;;;5060290;28;20024;-93
2022/09/21 13:53:55;;;;;;;3.90;0.95;;;;;;;;;;5033095;28;20107;-89
2022/09/21 13:56:24;;;;;;;1.77;0.82;;;;;;;;;;5048520;28;20027;-91
2022/09/21 13:58:51;;;;;;;3.05;0.68;;;;;;;;;;5038229;28;20017;-89
2022/09/21 14:01:19;;;;;;;3.30;0.95;;;;;;;;;;5037389;28;20120;-90
2022/09/21 14:04:05;;;;;;;6.07;1.15;;;;;;;;;;5037030;28;20025;-93
2022/09/21 14:06:34;;;;;;;10.13;1.30;;;;;;;;;;5052657;28;20025;-89
2022/09/21 14:09:01;;;;;;;4.45;0.75;;;;;;;;;;5031974;28;20032;-91
2022/09/21 14:11:32;;;;;;;9.73;1.00;;;;;;;;;;5048458;28;20021;-92
2022/09/21 14:14:10;;;;;;;4.50;1.05;;;;;;;;;;5032263;28;20028;-88
2022/09/21 14:16:42;;;;;;;3.50;0.70;;;;;;;;;;5037684;28;20032;-90
2022/09/21 14:19:16;;;;;;;2.85;0.63;;;;;;;;;;5041899;28;20021;-89
2022/09/21 14:22:00;;;;;;;6.30;1.35;;;;;;;;;;5050835;28;20404;-94
2022/09/21 14:24:40;;;;;;;7.43;0.88;;;;;;;;;;5032007;28;20098;-91
2022/09/21 14:27:08;;;;;;;;;;;;;;;;;;5046580;28;20025;-91
2022/09/21 14:29:40;;;;;;;8.75;2.22;;;;;;;;;;5046614;28;19905;-92
2022/09/21 14:32:11;;;;;;;2.80;0.88;;;;;;;;;;5032376;28;20056;-89
2022/09/21 14:34:38;;;;;;;7.78;1.13;;;;;;;;;;5032768;28;20541;-90
2022/09/21 14:37:17;;;;;;;2.30;0.57;;;;;;;;;;5048942;28;20024;-92
2022/09/21 14:39:44;;;;;;;3.15;0.60;;;;;;;;;;5040428;28;20012;-92
2022/09/21 14:42:14;;;;;;;3.53;1.67;;;;;;;;;;5049835;28;20017;-89
2022/09/21 14:44:39;;;;;;;;;;;;;;;;;;5067851;28;20004;-89
2022/09/21 14:47:17;;;;;;;8.65;1.00;;;;;;;;;;5047261;28;20292;-89
2022/09/21 14:50:03;;;;;;;4.03;0.82;;;;;;;;;;5041659;28;20012;-87
2022/09/21 14:52:36;;;;;;;3.20;0.98;;;;;;;;;;5064470;28;20021;-89
2022/09/21 14:55:15;;;;;;;2.30;0.82;;;;;;;;;;5039572;28;20500;-89
2022/09/21 14:57:43;;;;;;;4.82;1.10;;;;;;;;;;5031112;28;20024;-89